createdAt,value
2022-09-13T00:00:59.850Z,16.55
2022-09-13T00:03:04.827Z,16.54
2022-09-13T00:05:08.019Z,16.49
2022-09-13T00:07:10.674Z,16.48
2022-09-13T00:09:13.841Z,16.46
2022-09-13T00:11:18.807Z,16.45
2022-09-13T00:13:21.507Z,16.40
2022-09-13T00:15:24.244Z,16.33
2022-09-13T00:17:27.164Z,16.25
2022-09-13T00:19:31.259Z,16.25
2022-09-13T00:21:34.221Z,16.19
2022-09-13T00:23:37.979Z,16.19
2022-09-13T00:25:40.764Z,16.13
2022-09-13T00:27:44.635Z,16.13
2022-09-13T00:29:47.285Z,16.13
2022-09-13T00:31:50.086Z,14.47
2022-09-13T00:33:53.004Z,14.39
2022-09-13T00:35:56.985Z,15.61
2022-09-13T00:38:01.274Z,16.08
2022-09-13T00:40:05.261Z,16.04
2022-09-13T00:42:11.366Z,15.67
2022-09-13T00:44:55.088Z,16.03
2022-09-13T00:46:57.943Z,15.98
2022-09-13T00:49:05.443Z,13.28
2022-09-13T00:51:11.629Z,15.90
2022-09-13T00:53:18.040Z,15.89
2022-09-13T00:55:25.563Z,15.96
2022-09-13T00:57:30.161Z,16.00
2022-09-13T00:59:38.464Z,15.92
2022-09-13T01:01:48.800Z,15.86
2022-09-13T01:03:51.987Z,15.90
2022-09-13T01:05:58.813Z,15.88
2022-09-13T01:08:04.293Z,15.87
2022-09-13T01:10:09.025Z,15.83
2022-09-13T01:12:18.909Z,15.83
2022-09-13T01:14:23.399Z,15.76
2022-09-13T01:16:26.684Z,14.89
2022-09-13T01:18:29.511Z,15.68
2022-09-13T01:20:47.590Z,15.62
2022-09-13T01:23:37.015Z,15.66
2022-09-13T01:26:19.873Z,15.59
2022-09-13T01:28:57.282Z,15.51
2022-09-13T01:31:08.255Z,15.54
2022-09-13T01:33:27.082Z,15.45
2022-09-13T01:35:43.368Z,15.42
2022-09-13T01:37:54.214Z,15.44
2022-09-13T01:40:06.941Z,14.68
2022-09-13T01:42:21.307Z,15.39
2022-09-13T01:44:36.900Z,15.40
2022-09-13T01:46:49.662Z,15.40
2022-09-13T01:48:57.894Z,14.18
2022-09-13T01:51:07.031Z,13.57
2022-09-13T01:53:23.053Z,15.33
2022-09-13T01:55:35.917Z,15.34
2022-09-13T01:57:44.942Z,15.35
2022-09-13T01:59:52.453Z,15.34
2022-09-13T02:02:02.393Z,15.29
2022-09-13T02:04:10.352Z,15.20
2022-09-13T02:06:19.384Z,15.11
2022-09-13T02:08:30.238Z,15.06
2022-09-13T02:10:39.358Z,15.02
2022-09-13T02:12:44.469Z,14.95
2022-09-13T02:14:53.135Z,15.01
2022-09-13T02:17:02.574Z,15.04
2022-09-13T02:19:10.768Z,15.03
2022-09-13T02:21:18.806Z,15.03
2022-09-13T02:23:31.338Z,15.08
2022-09-13T02:25:37.730Z,15.02
2022-09-13T02:27:45.763Z,14.96
2022-09-13T02:29:52.053Z,14.95
2022-09-13T02:32:01.156Z,14.52
2022-09-13T02:34:08.390Z,14.81
2022-09-13T02:36:16.392Z,14.59
2022-09-13T02:38:24.188Z,14.66
2022-09-13T02:40:31.485Z,14.61
2022-09-13T02:42:38.619Z,14.62
2022-09-13T02:44:44.565Z,13.62
2022-09-13T02:47:11.965Z,14.75
2022-09-13T02:49:23.747Z,14.72
2022-09-13T02:51:33.369Z,14.66
2022-09-13T02:53:44.246Z,14.57
2022-09-13T02:55:58.444Z,14.47
2022-09-13T02:58:05.876Z,14.53
2022-09-13T03:00:10.003Z,14.57
2022-09-13T03:02:18.108Z,14.62
2022-09-13T03:04:21.417Z,14.67
2022-09-13T03:06:25.288Z,14.68
2022-09-13T03:08:29.167Z,14.39
2022-09-13T03:10:42.159Z,14.71
2022-09-13T03:13:12.201Z,14.79
2022-09-13T03:15:25.767Z,14.76
2022-09-13T03:17:47.312Z,14.70
2022-09-13T03:20:04.873Z,14.46
2022-09-13T03:22:29.283Z,13.34
2022-09-13T03:24:42.061Z,14.49
2022-09-13T03:26:55.835Z,14.51
2022-09-13T03:29:12.149Z,14.48
2022-09-13T03:31:22.939Z,14.53
2022-09-13T03:33:32.211Z,14.55
2022-09-13T03:35:41.325Z,14.56
2022-09-13T03:37:53.524Z,14.54
2022-09-13T03:40:01.227Z,14.09
2022-09-13T03:42:11.108Z,14.40
2022-09-13T03:44:18.329Z,14.31
2022-09-13T03:46:27.232Z,14.38
2022-09-13T03:48:32.600Z,14.39
2022-09-13T03:50:36.588Z,14.35
2022-09-13T03:52:42.242Z,14.36
2022-09-13T03:54:48.642Z,14.31
2022-09-13T03:57:12.872Z,14.34
2022-09-13T03:59:15.823Z,14.35
2022-09-13T04:01:21.827Z,14.01
2022-09-13T04:03:24.718Z,14.30
2022-09-13T04:05:28.845Z,14.22
2022-09-13T04:07:31.703Z,14.19
2022-09-13T04:09:34.789Z,14.16
2022-09-13T04:11:37.977Z,13.80
2022-09-13T04:13:41.383Z,14.20
2022-09-13T04:15:44.104Z,13.81
2022-09-13T04:17:46.822Z,14.27
2022-09-13T04:19:49.663Z,14.30
2022-09-13T04:21:55.915Z,12.33
2022-09-13T04:23:58.634Z,14.22
2022-09-13T04:26:05.871Z,13.34
2022-09-13T04:28:09.483Z,14.15
2022-09-13T04:30:13.341Z,13.68
2022-09-13T04:32:16.111Z,14.22
2022-09-13T04:34:19.379Z,13.71
2022-09-13T04:36:22.956Z,13.99
2022-09-13T04:38:27.255Z,14.28
2022-09-13T04:40:30.019Z,14.18
2022-09-13T04:42:32.645Z,14.22
2022-09-13T04:44:35.299Z,13.09
2022-09-13T04:46:37.932Z,14.21
2022-09-13T04:48:40.554Z,14.27
2022-09-13T04:50:43.223Z,14.38
2022-09-13T04:52:45.856Z,14.41
2022-09-13T04:54:49.794Z,14.47
2022-09-13T04:56:52.411Z,14.54
2022-09-13T04:58:56.413Z,14.58
2022-09-13T05:01:02.540Z,14.69
2022-09-13T05:03:05.327Z,14.70
2022-09-13T05:05:08.784Z,14.73
2022-09-13T05:07:11.569Z,14.67
2022-09-13T05:09:15.064Z,14.66
2022-09-13T05:11:19.355Z,14.45
2022-09-13T05:13:22.006Z,14.48
2022-09-13T05:15:24.670Z,14.55
2022-09-13T05:17:27.506Z,14.53
2022-09-13T05:19:30.321Z,14.62
2022-09-13T05:21:33.258Z,14.68
2022-09-13T05:23:35.869Z,14.75
2022-09-13T05:25:38.492Z,14.75
2022-09-13T05:27:42.492Z,14.75
2022-09-13T05:29:45.100Z,14.56
2022-09-13T05:31:47.875Z,15.06
2022-09-13T05:33:54.819Z,15.18
2022-09-13T05:35:57.538Z,13.28
2022-09-13T05:38:00.160Z,14.89
2022-09-13T05:40:14.250Z,14.93
2022-09-13T05:42:17.377Z,15.14
2022-09-13T05:44:21.394Z,15.19
2022-09-13T05:46:24.201Z,15.24
2022-09-13T05:48:27.125Z,15.27
2022-09-13T05:50:56.794Z,15.31
2022-09-13T05:52:53.666Z,14.96
2022-09-13T05:54:56.384Z,14.90
2022-09-13T05:56:59.042Z,15.68
2022-09-13T05:59:01.730Z,15.68
2022-09-13T06:01:06.147Z,15.72
2022-09-13T06:03:09.358Z,15.72
2022-09-13T06:05:12.609Z,15.24
2022-09-13T06:07:15.315Z,15.66
2022-09-13T06:09:18.719Z,15.67
2022-09-13T06:11:21.653Z,15.75
2022-09-13T06:13:24.854Z,15.81
2022-09-13T06:15:27.614Z,15.78
2022-09-13T06:17:31.797Z,16.01
2022-09-13T06:19:34.548Z,16.02
2022-09-13T06:21:37.283Z,15.97
2022-09-13T06:23:40.067Z,16.02
2022-09-13T06:25:43.251Z,16.14
2022-09-13T06:27:45.955Z,16.24
2022-09-13T06:29:48.622Z,16.26
2022-09-13T06:31:51.303Z,16.21
2022-09-13T06:33:59.021Z,16.35
2022-09-13T06:36:02.651Z,16.37
2022-09-13T06:38:05.455Z,16.50
2022-09-13T06:40:09.523Z,16.50
2022-09-13T06:42:12.452Z,16.71
2022-09-13T06:44:15.977Z,16.89
2022-09-13T06:46:24.611Z,17.06
2022-09-13T06:48:28.725Z,17.32
2022-09-13T06:50:32.888Z,17.46
2022-09-13T06:52:35.616Z,17.55
2022-09-13T06:54:38.323Z,17.62
2022-09-13T06:56:41.049Z,17.62
2022-09-13T06:58:46.528Z,17.74
2022-09-13T07:00:51.873Z,17.81
2022-09-13T07:02:58.203Z,17.85
2022-09-13T07:05:00.897Z,16.68
2022-09-13T07:07:04.966Z,18.06
2022-09-13T07:09:09.888Z,18.08
2022-09-13T07:11:14.815Z,18.19
2022-09-13T07:13:17.563Z,18.20
2022-09-13T07:15:20.510Z,18.30
2022-09-13T07:17:23.167Z,18.36
2022-09-13T07:19:27.377Z,18.17
2022-09-13T07:21:30.510Z,18.60
2022-09-13T07:23:35.806Z,18.67
2022-09-13T07:25:38.459Z,18.76
2022-09-13T07:27:41.950Z,18.81
2022-09-13T07:29:44.689Z,18.78
2022-09-13T07:31:49.348Z,18.98
2022-09-13T07:33:55.449Z,19.18
2022-09-13T07:35:59.732Z,19.28
2022-09-13T07:38:02.440Z,19.36
2022-09-13T07:40:07.960Z,19.42
2022-09-13T07:42:10.705Z,19.49
2022-09-13T07:44:13.778Z,18.55
2022-09-13T07:46:18.312Z,17.30
2022-09-13T07:48:21.042Z,19.71
2022-09-13T07:50:23.731Z,19.41
2022-09-13T07:52:26.462Z,19.80
2022-09-13T07:54:30.178Z,19.85
2022-09-13T07:56:35.800Z,19.93
2022-09-13T07:58:40.329Z,19.97
2022-09-13T08:00:43.139Z,20.09
2022-09-13T08:02:45.987Z,20.19
2022-09-13T08:04:48.842Z,20.30
2022-09-13T08:06:51.578Z,20.37
2022-09-13T08:08:55.147Z,20.01
2022-09-13T08:10:58.180Z,20.56
2022-09-13T08:13:02.650Z,20.70
2022-09-13T08:15:06.538Z,20.76
2022-09-13T08:17:10.553Z,20.82
2022-09-13T08:19:15.843Z,20.82
2022-09-13T08:21:19.115Z,20.81
2022-09-13T08:23:21.923Z,20.95
2022-09-13T08:25:24.652Z,21.04
2022-09-13T08:27:29.094Z,21.18
2022-09-13T08:29:33.266Z,21.17
2022-09-13T08:31:36.701Z,21.57
2022-09-13T08:33:44.228Z,21.73
2022-09-13T08:35:53.026Z,21.88
2022-09-13T08:37:56.031Z,22.02
2022-09-13T08:39:58.816Z,22.04
2022-09-13T08:42:24.750Z,22.20
2022-09-13T08:44:31.163Z,22.32
2022-09-13T08:46:38.717Z,22.52
2022-09-13T08:48:45.570Z,22.12
2022-09-13T08:50:53.392Z,22.95
2022-09-13T08:55:09.249Z,23.30
2022-09-13T08:57:19.382Z,23.33
2022-09-13T08:59:37.514Z,23.20
2022-09-13T09:01:51.815Z,23.15
2022-09-13T09:04:04.509Z,23.28
2022-09-13T09:06:13.179Z,23.37
2022-09-13T09:08:27.864Z,23.41
2022-09-13T09:10:33.604Z,23.57
2022-09-13T09:12:42.659Z,20.51
2022-09-13T09:14:51.081Z,23.83
2022-09-13T09:16:58.459Z,24.01
2022-09-13T09:19:10.990Z,24.16
2022-09-13T09:21:18.516Z,24.54
2022-09-13T09:23:25.411Z,24.79
2022-09-13T09:25:28.279Z,24.86
2022-09-13T09:27:32.347Z,24.70
2022-09-13T09:29:38.192Z,25.05
2022-09-13T09:31:49.855Z,24.98
2022-09-13T09:34:09.033Z,25.37
2022-09-13T09:36:20.070Z,25.64
2022-09-13T09:38:42.777Z,25.81
2022-09-13T09:40:45.628Z,26.08
2022-09-13T09:42:49.831Z,26.39
2022-09-13T09:44:54.733Z,26.40
2022-09-13T09:47:02.430Z,26.32
2022-09-13T09:49:30.397Z,26.40
2022-09-13T09:51:34.559Z,26.43
2022-09-13T09:53:43.497Z,26.57
2022-09-13T09:55:50.322Z,26.71
2022-09-13T09:57:55.654Z,26.68
2022-09-13T10:00:13.146Z,26.94
2022-09-13T10:02:18.652Z,26.86
2022-09-13T10:04:23.868Z,27.50
2022-09-13T10:06:30.117Z,27.61
2022-09-13T10:08:36.975Z,27.75
2022-09-13T10:10:43.666Z,27.90
2022-09-13T10:12:51.884Z,26.96
2022-09-13T10:15:05.553Z,28.16
2022-09-13T10:17:18.317Z,28.33
2022-09-13T10:19:28.194Z,28.23
2022-09-13T10:21:31.017Z,28.38
2022-09-13T10:23:35.390Z,28.57
2022-09-13T10:25:39.743Z,28.46
2022-09-13T10:27:48.716Z,28.75
2022-09-13T10:29:55.329Z,29.05
2022-09-13T10:31:58.987Z,29.17
2022-09-13T10:34:04.674Z,28.58
2022-09-13T10:36:29.571Z,29.44
2022-09-13T10:38:45.511Z,29.62
2022-09-13T10:40:49.318Z,29.52
2022-09-13T10:42:54.428Z,29.65
2022-09-13T10:44:59.148Z,29.47
2022-09-13T10:47:05.573Z,29.46
2022-09-13T10:49:39.233Z,29.36
2022-09-13T10:51:43.937Z,28.85
2022-09-13T10:53:47.422Z,28.46
2022-09-13T10:55:54.828Z,29.19
2022-09-13T10:58:14.736Z,29.37
2022-09-13T11:00:20.176Z,29.30
2022-09-13T11:02:38.933Z,29.38
2022-09-13T11:05:08.618Z,29.41
2022-09-13T11:07:33.508Z,29.00
2022-09-13T11:09:43.202Z,29.91
2022-09-13T11:11:57.907Z,29.77
2022-09-13T11:14:15.029Z,30.32
2022-09-13T11:16:32.832Z,30.20
2022-09-13T11:18:58.089Z,31.44
2022-09-13T11:21:10.143Z,31.60
2022-09-13T11:23:36.650Z,32.03
2022-09-13T11:26:07.973Z,29.73
2022-09-13T11:28:21.956Z,30.23
2022-09-13T11:30:29.914Z,30.89
2022-09-13T11:32:48.484Z,30.62
2022-09-13T11:35:19.778Z,30.37
2022-09-13T11:37:41.170Z,31.08
2022-09-13T11:39:56.033Z,31.22
2022-09-13T11:42:09.862Z,31.36
2022-09-13T11:44:42.175Z,30.73
2022-09-13T11:46:52.084Z,31.89
2022-09-13T11:49:07.774Z,32.12
2022-09-13T11:51:21.118Z,32.02
2022-09-13T11:53:50.315Z,32.36
2022-09-13T11:55:59.553Z,32.35
2022-09-13T11:58:05.447Z,32.17
2022-09-13T12:00:20.336Z,32.73
2022-09-13T12:02:29.648Z,33.20
2022-09-13T12:04:38.366Z,33.64
2022-09-13T12:06:43.993Z,32.38
2022-09-13T12:08:51.381Z,30.29
2022-09-13T12:10:57.763Z,29.09
2022-09-13T12:13:04.058Z,31.51
2022-09-13T12:15:14.889Z,31.16
2022-09-13T12:17:27.933Z,31.44
2022-09-13T12:19:37.630Z,31.42
2022-09-13T12:21:43.871Z,31.81
2022-09-13T12:23:54.379Z,32.33
2022-09-13T12:26:03.421Z,32.96
2022-09-13T12:28:14.173Z,32.55
2022-09-13T12:30:19.949Z,32.61
2022-09-13T12:32:23.742Z,32.67
2022-09-13T12:34:33.370Z,32.00
2022-09-13T12:37:07.124Z,31.82
2022-09-13T12:39:27.066Z,32.17
2022-09-13T12:41:47.352Z,31.75
2022-09-13T12:44:31.685Z,31.31
2022-09-13T12:47:17.043Z,30.91
2022-09-13T12:49:34.608Z,29.44
2022-09-13T12:51:56.593Z,31.58
2022-09-13T12:54:23.787Z,31.85
2022-09-13T12:56:41.849Z,31.20
2022-09-13T12:59:06.304Z,31.39
2022-09-13T13:01:15.143Z,31.06
2022-09-13T13:03:21.161Z,30.95
2022-09-13T13:05:30.930Z,31.28
2022-09-13T13:07:37.916Z,31.01
2022-09-13T13:09:43.632Z,31.08
2022-09-13T13:11:50.816Z,30.34
2022-09-13T13:14:03.489Z,31.96
2022-09-13T13:16:23.451Z,31.41
2022-09-13T13:18:30.203Z,30.96
2022-09-13T13:21:22.513Z,30.78
2022-09-13T13:23:29.988Z,31.53
2022-09-13T13:25:39.100Z,31.47
2022-09-13T13:27:48.581Z,30.55
2022-09-13T13:30:37.190Z,30.47
2022-09-13T13:33:06.506Z,31.07
2022-09-13T13:35:29.921Z,31.67
2022-09-13T13:37:36.773Z,32.09
2022-09-13T13:39:41.911Z,32.61
2022-09-13T13:41:52.563Z,33.37
2022-09-13T13:43:56.708Z,33.82
2022-09-13T13:46:15.439Z,30.18
2022-09-13T13:48:36.380Z,34.02
2022-09-13T13:51:17.383Z,34.00
2022-09-13T13:53:24.657Z,34.62
2022-09-13T13:55:45.146Z,34.27
2022-09-13T13:57:58.358Z,32.74
2022-09-13T14:00:14.569Z,34.18
2022-09-13T14:02:22.161Z,33.35
2022-09-13T14:05:00.859Z,34.11
2022-09-13T14:07:21.059Z,34.40
2022-09-13T14:09:33.735Z,34.30
2022-09-13T14:11:49.253Z,33.69
2022-09-13T14:14:04.449Z,34.33
2022-09-13T14:16:16.105Z,34.61
2022-09-13T14:18:45.020Z,34.69
2022-09-13T14:21:01.744Z,33.23
2022-09-13T14:23:14.177Z,34.25
2022-09-13T14:25:25.299Z,34.15
2022-09-13T14:27:30.477Z,33.67
2022-09-13T14:29:33.370Z,33.77
2022-09-13T14:31:39.024Z,33.74
2022-09-13T14:33:41.846Z,33.28
2022-09-13T14:35:44.567Z,33.30
2022-09-13T14:37:47.307Z,33.41
2022-09-13T14:39:57.554Z,33.37
2022-09-13T14:42:02.354Z,33.36
2022-09-13T14:44:23.682Z,30.86
2022-09-13T14:46:32.979Z,32.72
2022-09-13T14:48:42.204Z,32.44
2022-09-13T14:50:52.736Z,32.22
2022-09-13T14:52:58.473Z,32.13
2022-09-13T14:55:04.705Z,32.15
2022-09-13T14:57:11.090Z,31.55
2022-09-13T14:59:18.921Z,31.82
2022-09-13T15:01:27.838Z,31.80
2022-09-13T15:03:30.985Z,31.94
2022-09-13T15:05:37.396Z,29.69
2022-09-13T15:07:42.040Z,31.83
2022-09-13T15:09:44.920Z,32.17
2022-09-13T15:12:01.066Z,32.39
2022-09-13T15:14:27.143Z,32.38
2022-09-13T15:16:32.692Z,29.28
2022-09-13T15:18:37.344Z,31.54
2022-09-13T15:20:50.423Z,31.64
2022-09-13T15:22:54.010Z,31.91
2022-09-13T15:24:58.898Z,31.58
2022-09-13T15:27:07.415Z,31.49
2022-09-13T15:29:19.530Z,31.69
2022-09-13T15:31:24.445Z,31.41
2022-09-13T15:33:29.844Z,30.98
2022-09-13T15:35:37.670Z,29.16
2022-09-13T15:37:41.803Z,29.65
2022-09-13T15:39:50.083Z,31.06
2022-09-13T15:41:54.342Z,30.89
2022-09-13T15:43:57.028Z,30.09
2022-09-13T15:46:01.740Z,30.45
2022-09-13T15:48:04.666Z,30.20
2022-09-13T15:50:08.147Z,30.04
2022-09-13T15:52:11.352Z,29.83
2022-09-13T15:54:17.082Z,29.66
2022-09-13T15:56:21.903Z,28.84
2022-09-13T15:58:24.932Z,29.58
2022-09-13T16:00:29.041Z,28.00
2022-09-13T16:02:33.850Z,29.35
2022-09-13T16:04:36.666Z,28.06
2022-09-13T16:06:40.266Z,28.04
2022-09-13T16:08:43.162Z,29.13
2022-09-13T16:10:47.996Z,28.95
2022-09-13T16:12:51.446Z,28.95
2022-09-13T16:14:54.911Z,28.87
2022-09-13T16:16:57.757Z,28.76
2022-09-13T16:19:00.435Z,27.65
2022-09-13T16:21:03.120Z,28.67
2022-09-13T16:23:05.810Z,28.61
2022-09-13T16:25:09.475Z,28.49
2022-09-13T16:27:14.851Z,28.37
2022-09-13T16:29:17.601Z,28.31
2022-09-13T16:31:20.452Z,28.28
2022-09-13T16:33:23.226Z,28.28
2022-09-13T16:35:28.895Z,28.07
2022-09-13T16:37:31.761Z,28.32
2022-09-13T16:39:34.636Z,28.53
2022-09-13T16:41:39.257Z,28.48
2022-09-13T16:43:49.741Z,28.86
2022-09-13T16:45:52.509Z,28.86
2022-09-13T16:47:55.434Z,27.99
2022-09-13T16:49:58.194Z,28.48
2022-09-13T16:52:01.311Z,28.27
2022-09-13T16:54:04.329Z,28.28
2022-09-13T16:56:07.759Z,28.00
2022-09-13T16:58:10.448Z,27.74
2022-09-13T17:00:19.158Z,24.94
2022-09-13T17:02:22.364Z,27.66
2022-09-13T17:04:25.719Z,26.12
2022-09-13T17:06:28.828Z,27.52
2022-09-13T17:08:32.111Z,27.49
2022-09-13T17:10:34.873Z,27.51
2022-09-13T17:12:37.681Z,27.44
2022-09-13T17:14:42.613Z,27.04
2022-09-13T17:16:48.901Z,23.96
2022-09-13T17:18:52.208Z,26.72
2022-09-13T17:20:54.929Z,26.58
2022-09-13T17:22:57.767Z,26.70
2022-09-13T17:25:01.631Z,23.94
2022-09-13T17:27:06.674Z,26.56
2022-09-13T17:29:09.557Z,25.55
2022-09-13T17:31:12.402Z,26.12
2022-09-13T17:33:16.600Z,26.06
2022-09-13T17:35:19.334Z,25.94
2022-09-13T17:37:21.980Z,25.91
2022-09-13T17:39:24.957Z,25.86
2022-09-13T17:41:27.814Z,25.85
2022-09-13T17:43:30.671Z,25.78
2022-09-13T17:45:33.946Z,25.65
2022-09-13T17:47:36.589Z,25.65
2022-09-13T17:49:40.805Z,25.50
2022-09-13T17:51:43.475Z,25.18
2022-09-13T17:53:48.584Z,24.64
2022-09-13T17:55:51.670Z,24.15
2022-09-13T17:57:55.695Z,24.80
2022-09-13T17:59:58.377Z,24.88
2022-09-13T18:02:01.303Z,24.91
2022-09-13T18:04:04.362Z,23.52
2022-09-13T18:06:10.595Z,24.69
2022-09-13T18:08:13.377Z,23.53
2022-09-13T18:10:42.636Z,24.45
2022-09-13T18:12:40.109Z,24.57
2022-09-13T18:14:42.805Z,24.50
2022-09-13T18:16:46.610Z,24.04
2022-09-13T18:18:50.621Z,24.16
2022-09-13T18:20:53.350Z,24.24
2022-09-13T18:22:57.358Z,24.28
2022-09-13T18:25:00.016Z,24.35
2022-09-13T18:27:03.566Z,24.01
2022-09-13T18:29:10.397Z,23.64
2022-09-13T18:31:15.884Z,20.38
2022-09-13T18:33:20.942Z,24.34
2022-09-13T18:35:23.669Z,24.29
2022-09-13T18:37:26.348Z,24.27
2022-09-13T18:39:30.718Z,24.24
2022-09-13T18:41:35.227Z,24.23
2022-09-13T18:43:40.158Z,22.75
2022-09-13T18:45:43.008Z,24.14
2022-09-13T18:47:45.913Z,24.07
2022-09-13T18:49:48.951Z,24.08
2022-09-13T18:51:51.798Z,24.13
2022-09-13T18:53:55.618Z,24.08
2022-09-13T18:56:01.595Z,24.11
2022-09-13T18:58:05.046Z,24.07
2022-09-13T19:00:09.530Z,24.03
2022-09-13T19:02:12.857Z,23.94
2022-09-13T19:04:17.836Z,23.49
2022-09-13T19:06:22.796Z,23.66
2022-09-13T19:08:25.470Z,23.54
2022-09-13T19:10:28.513Z,23.59
2022-09-13T19:12:32.519Z,23.66
2022-09-13T19:14:35.294Z,23.71
2022-09-13T19:16:37.923Z,23.63
2022-09-13T19:18:42.925Z,23.14
2022-09-13T19:20:45.596Z,23.60
2022-09-13T19:22:48.238Z,22.89
2022-09-13T19:24:52.408Z,23.53
2022-09-13T19:26:55.278Z,23.51
2022-09-13T19:29:04.436Z,23.38
2022-09-13T19:31:09.368Z,23.46
2022-09-13T19:33:13.565Z,23.28
2022-09-13T19:35:16.311Z,23.31
2022-09-13T19:37:19.112Z,23.38
2022-09-13T19:39:24.774Z,23.07
2022-09-13T19:41:30.722Z,23.49
2022-09-13T19:43:36.937Z,23.37
2022-09-13T19:45:40.959Z,23.31
2022-09-13T19:48:25.816Z,23.26
2022-09-13T19:50:07.545Z,22.64
2022-09-13T19:52:10.303Z,23.20
2022-09-13T19:54:14.870Z,23.09
2022-09-13T19:56:19.134Z,23.02
2022-09-13T19:58:21.950Z,21.96
2022-09-13T20:00:24.626Z,22.14
2022-09-13T20:02:28.610Z,23.08
2022-09-13T20:04:31.333Z,22.79
2022-09-13T20:06:36.488Z,22.90
2022-09-13T20:08:40.191Z,22.86
2022-09-13T20:10:42.943Z,21.42
2022-09-13T20:12:45.548Z,22.69
2022-09-13T20:14:48.176Z,22.90
2022-09-13T20:16:50.807Z,22.95
2022-09-13T20:18:57.060Z,22.77
2022-09-13T20:21:04.672Z,22.63
2022-09-13T20:23:07.370Z,22.69
2022-09-13T20:25:11.285Z,22.75
2022-09-13T20:27:14.399Z,22.73
2022-09-13T20:29:17.136Z,22.57
2022-09-13T20:31:19.842Z,22.20
2022-09-13T20:33:22.957Z,22.37
2022-09-13T20:35:27.018Z,22.23
2022-09-13T20:37:29.700Z,22.29
2022-09-13T20:39:32.384Z,22.14
2022-09-13T20:41:35.372Z,21.62
2022-09-13T20:43:38.992Z,21.90
2022-09-13T20:45:42.286Z,21.90
2022-09-13T20:47:46.673Z,22.10
2022-09-13T20:49:49.392Z,22.12
2022-09-13T20:51:53.514Z,21.80
2022-09-13T20:54:00.378Z,21.85
2022-09-13T20:56:03.973Z,21.96
2022-09-13T20:58:06.675Z,22.06
2022-09-13T21:00:11.512Z,21.80
2022-09-13T21:02:14.331Z,21.98
2022-09-13T21:04:17.523Z,22.07
2022-09-13T21:06:21.896Z,21.99
2022-09-13T21:08:42.983Z,21.56
2022-09-13T21:10:56.067Z,21.77
2022-09-13T21:13:00.899Z,21.50
2022-09-13T21:15:03.949Z,21.60
2022-09-13T21:17:08.090Z,21.76
2022-09-13T21:19:11.267Z,21.82
2022-09-13T21:21:17.089Z,21.73
2022-09-13T21:23:19.712Z,21.53
2022-09-13T21:25:23.674Z,20.38
2022-09-13T21:27:26.304Z,21.62
2022-09-13T21:29:29.627Z,21.46
2022-09-13T21:31:34.296Z,20.48
2022-09-13T21:33:37.314Z,21.65
2022-09-13T21:35:40.294Z,21.58
2022-09-13T21:37:43.011Z,21.56
2022-09-13T21:39:45.730Z,21.40
2022-09-13T21:41:50.032Z,20.87
2022-09-13T21:43:52.871Z,20.12
2022-09-13T21:46:03.525Z,21.48
2022-09-13T21:48:06.657Z,21.47
2022-09-13T21:50:10.417Z,21.47
2022-09-13T21:52:13.746Z,21.00
2022-09-13T21:54:18.392Z,21.10
2022-09-13T21:56:22.705Z,21.36
2022-09-13T21:58:27.029Z,21.37
2022-09-13T22:00:29.793Z,21.13
2022-09-13T22:02:32.918Z,21.26
2022-09-13T22:04:35.824Z,21.35
2022-09-13T22:06:38.569Z,21.25
2022-09-13T22:08:44.274Z,21.03
2022-09-13T22:10:46.953Z,21.08
2022-09-13T22:12:49.696Z,20.24
2022-09-13T22:14:53.754Z,20.51
2022-09-13T22:16:56.699Z,21.06
2022-09-13T22:19:07.969Z,21.12
2022-09-13T22:21:14.351Z,21.19
2022-09-13T22:23:17.337Z,20.98
2022-09-13T22:25:20.015Z,21.10
2022-09-13T22:27:22.683Z,20.86
2022-09-13T22:29:25.921Z,20.66
2022-09-13T22:31:32.580Z,20.97
2022-09-13T22:33:36.002Z,20.75
2022-09-13T22:35:38.664Z,21.00
2022-09-13T22:37:41.416Z,21.06
2022-09-13T22:39:44.190Z,21.14
2022-09-13T22:41:47.130Z,21.25
2022-09-13T22:43:50.299Z,21.27
2022-09-13T22:45:53.753Z,20.89
2022-09-13T22:47:57.966Z,21.33
2022-09-13T22:50:00.674Z,21.27
2022-09-13T22:52:03.763Z,21.30
2022-09-13T22:54:07.798Z,21.24
2022-09-13T22:56:13.720Z,21.22
2022-09-13T22:58:17.669Z,21.22
2022-09-13T23:00:20.458Z,21.13
2022-09-13T23:02:23.197Z,18.85
2022-09-13T23:04:27.587Z,21.11
2022-09-13T23:06:31.251Z,21.07
2022-09-13T23:08:34.594Z,21.08
2022-09-13T23:10:37.331Z,21.10
2022-09-13T23:12:40.009Z,21.09
2022-09-13T23:14:42.709Z,21.07
2022-09-13T23:16:46.984Z,20.45
2022-09-13T23:18:49.989Z,20.35
2022-09-13T23:20:58.495Z,20.84
2022-09-13T23:23:01.236Z,20.94
2022-09-13T23:25:04.362Z,20.84
2022-09-13T23:27:07.868Z,20.92
2022-09-13T23:29:14.004Z,20.97
2022-09-13T23:31:19.822Z,21.02
2022-09-13T23:33:22.637Z,20.91
2022-09-13T23:35:25.959Z,20.85
2022-09-13T23:37:30.487Z,20.17
2022-09-13T23:39:33.287Z,20.96
2022-09-13T23:41:36.536Z,20.95
2022-09-13T23:43:39.595Z,20.89
2022-09-13T23:45:44.030Z,20.86
2022-09-13T23:47:46.747Z,20.90
2022-09-13T23:49:49.612Z,20.95
2022-09-13T23:51:52.768Z,20.97
2022-09-13T23:53:58.342Z,20.92
2022-09-13T23:56:01.408Z,20.92
2022-09-13T23:58:04.099Z,20.95
